Time;durP1;ratioP1;P1;durP2;ratioP2;P2;SDS_P1;SDS_P2;PMS_P1;PMS_P2;Temp;Humidity;BMP_temperature;BMP_pressure;BME280_temperature;BME280_humidity;BME280_pressure;Samples;Min_cycle;Max_cycle;Signal;HPM_P1;HPM_P2
2023/05/05 00:00:01;;;;;;;7.13;6.63;;;17.90;87.80;;;;;;5012504;28;20670;-74
2023/05/05 00:02:27;;;;;;;6.57;6.17;;;17.90;88.30;;;;;;5015064;28;20548;-74
2023/05/05 00:04:53;;;;;;;7.23;6.73;;;17.90;88.00;;;;;;5004514;28;20411;-74
2023/05/05 00:07:19;;;;;;;6.80;6.17;;;17.90;88.00;;;;;;5014151;28;20179;-74
2023/05/05 00:09:45;;;;;;;6.20;5.70;;;17.90;87.20;;;;;;5013732;28;20234;-73
2023/05/05 00:12:10;;;;;;;6.17;5.67;;;17.90;83.80;;;;;;5003980;28;20206;-75
2023/05/05 00:14:36;;;;;;;6.97;6.20;;;17.90;85.30;;;;;;4994478;28;20571;-75
2023/05/05 00:17:02;;;;;;;6.33;5.87;;;17.90;83.80;;;;;;5000065;28;20411;-75
2023/05/05 00:19:28;;;;;;;5.80;5.40;;;17.90;83.00;;;;;;5001017;28;20172;-74
2023/05/05 00:21:54;;;;;;;6.37;5.93;;;18.00;83.00;;;;;;5002131;28;20473;-75
2023/05/05 00:24:20;;;;;;;6.20;5.70;;;18.00;83.90;;;;;;4993418;28;20180;-76
2023/05/05 00:26:45;;;;;;;6.17;5.67;;;17.90;84.50;;;;;;5004075;28;20233;-75
2023/05/05 00:29:11;;;;;;;6.43;5.83;;;17.90;86.40;;;;;;5013954;28;20696;-74
2023/05/05 00:31:37;;;;;;;7.80;6.00;;;18.00;84.20;;;;;;5012623;28;20268;-75
2023/05/05 00:34:02;;;;;;;6.53;6.03;;;18.00;83.60;;;;;;5013639;28;20210;-74
2023/05/05 00:36:29;;;;;;;6.33;5.83;;;17.90;84.40;;;;;;5003491;28;20196;-74
2023/05/05 00:38:54;;;;;;;6.00;5.53;;;17.90;81.00;;;;;;5001009;28;20186;-74
2023/05/05 00:41:20;;;;;;;5.57;5.17;;;18.00;80.10;;;;;;5001780;28;20403;-74
2023/05/05 00:43:46;;;;;;;6.70;6.10;;;18.10;79.30;;;;;;5000061;28;20262;-74
2023/05/05 00:46:22;;;;;;;8.80;6.13;;;18.10;79.90;;;;;;5001978;28;20191;-75
2023/05/05 00:48:47;;;;;;;6.27;5.80;;;18.10;77.60;;;;;;5002700;28;20528;-74
2023/05/05 00:51:15;;;;;;;6.33;5.60;;;18.10;77.40;;;;;;5005720;28;20550;-74
2023/05/05 00:53:43;;;;;;;6.00;5.60;;;18.10;76.70;;;;;;5002213;28;20678;-73
2023/05/05 00:56:11;;;;;;;5.93;5.53;;;18.10;76.30;;;;;;5004276;28;20508;-75
2023/05/05 00:58:39;;;;;;;6.23;5.63;;;18.20;76.50;;;;;;5003769;28;20430;-75
2023/05/05 01:01:06;;;;;;;5.53;5.10;;;18.30;76.40;;;;;;5005756;28;20467;-74
2023/05/05 01:03:32;;;;;;;6.30;5.80;;;18.10;75.90;;;;;;5006983;28;20788;-74
2023/05/05 01:06:16;;;;;;;7.00;6.50;;;18.20;76.30;;;;;;5002975;28;20523;-74
2023/05/05 01:09:00;;;;;;;6.17;5.77;;;18.30;79.10;;;;;;4998918;28;20195;-73
2023/05/05 01:11:53;;;;;;;6.20;5.80;;;18.40;78.70;;;;;;4994768;28;20530;-74
2023/05/05 01:14:26;;;;;;;6.50;6.00;;;18.50;76.90;;;;;;5003659;28;20433;-74
2023/05/05 01:17:06;;;;;;;5.73;5.23;;;18.50;75.50;;;;;;5009907;28;20914;-75
2023/05/05 01:19:59;;;;;;;5.80;5.30;;;18.60;76.00;;;;;;5011330;28;20788;-75
2023/05/05 01:22:37;;;;;;;6.00;5.60;;;18.60;74.70;;;;;;5010580;28;20434;-75
2023/05/05 01:25:16;;;;;;;7.20;5.47;;;18.70;75.90;;;;;;5010632;28;20425;-74
2023/05/05 01:28:04;;;;;;;5.97;5.57;;;18.70;78.70;;;;;;5007466;28;20495;-73
2023/05/05 01:30:54;;;;;;;6.00;5.60;;;18.70;79.80;;;;;;5007126;28;20945;-74
2023/05/05 01:33:25;;;;;;;6.00;5.60;;;18.70;83.60;;;;;;5005110;28;20528;-74
2023/05/05 01:35:54;;;;;;;6.10;5.60;;;18.70;82.10;;;;;;5008459;28;20470;-74
2023/05/05 01:38:25;;;;;;;6.63;6.13;;;18.70;84.10;;;;;;5011171;28;20913;-74
2023/05/05 01:41:08;;;;;;;7.13;6.13;;;18.60;83.90;;;;;;5008550;28;20434;-74
2023/05/05 01:43:35;;;;;;;6.50;6.00;;;18.60;85.80;;;;;;5008821;28;20429;-74
2023/05/05 01:46:03;;;;;;;7.33;6.63;;;18.60;87.00;;;;;;5009579;28;20955;-74
2023/05/05 01:48:29;;;;;;;6.23;5.73;;;18.50;87.30;;;;;;5012817;28;20406;-74
2023/05/05 01:50:57;;;;;;;6.87;6.30;;;18.50;86.30;;;;;;5005962;28;20458;-74
2023/05/05 01:53:24;;;;;;;6.70;6.17;;;18.50;87.20;;;;;;5000409;28;20468;-75
2023/05/05 01:55:53;;;;;;;5.47;5.17;;;18.50;88.20;;;;;;5010961;28;20472;-75
2023/05/05 01:58:21;;;;;;;6.20;5.80;;;18.40;89.20;;;;;;5012443;28;20909;-74
2023/05/05 02:00:48;;;;;;;6.30;5.90;;;18.30;87.40;;;;;;5010970;28;20414;-74
2023/05/05 02:03:16;;;;;;;6.30;5.90;;;18.30;88.10;;;;;;5012788;28;20394;-75
2023/05/05 02:05:43;;;;;;;6.43;5.83;;;18.30;89.70;;;;;;5012327;28;20453;-74
2023/05/05 02:08:10;;;;;;;7.00;6.50;;;18.30;89.30;;;;;;5012236;28;20414;-75
2023/05/05 02:10:41;;;;;;;6.17;5.77;;;18.30;89.40;;;;;;5011929;28;20898;-75
2023/05/05 02:13:11;;;;;;;6.40;5.90;;;18.30;90.10;;;;;;5012074;28;20417;-75
2023/05/05 02:15:38;;;;;;;6.97;6.27;;;18.30;90.20;;;;;;5012001;28;20839;-75
2023/05/05 02:18:08;;;;;;;6.67;6.17;;;18.30;90.30;;;;;;5009802;28;20418;-76
2023/05/05 02:20:37;;;;;;;6.60;6.00;;;18.20;89.50;;;;;;5027660;28;20413;-76
2023/05/05 02:23:04;;;;;;;6.63;6.17;;;18.20;89.80;;;;;;5011791;28;20471;-75
2023/05/05 02:25:36;;;;;;;6.50;6.10;;;18.20;89.90;;;;;;5012570;28;20421;-75
2023/05/05 02:28:03;;;;;;;6.43;5.93;;;18.20;89.10;;;;;;5011568;28;21073;-75
2023/05/05 02:30:32;;;;;;;7.43;6.93;;;18.20;90.00;;;;;;5012145;28;20853;-75
2023/05/05 02:33:07;;;;;;;6.37;5.87;;;18.20;90.20;;;;;;5011142;28;20422;-75
2023/05/05 02:35:37;;;;;;;6.03;5.60;;;18.20;89.30;;;;;;5012310;28;20774;-78
2023/05/05 02:38:08;;;;;;;6.50;6.00;;;18.20;89.90;;;;;;5011520;28;20397;-75
2023/05/05 02:40:36;;;;;;;5.73;5.33;;;18.10;90.00;;;;;;5012457;28;20405;-75
2023/05/05 02:43:12;;;;;;;6.10;5.70;;;18.10;90.00;;;;;;4995387;28;20429;-75
2023/05/05 02:45:38;;;;;;;6.80;6.30;;;18.10;90.30;;;;;;5010104;28;20425;-75
2023/05/05 02:48:04;;;;;;;6.53;6.03;;;18.00;90.00;;;;;;5009333;28;20433;-75
2023/05/05 02:50:30;;;;;;;6.57;6.17;;;18.00;89.70;;;;;;4992012;28;20222;-75
2023/05/05 02:53:00;;;;;;;6.60;6.10;;;18.00;90.30;;;;;;4991656;28;20417;-75
2023/05/05 02:55:37;;;;;;;6.47;6.07;;;17.90;90.60;;;;;;4991165;28;20834;-75
2023/05/05 02:58:21;;;;;;;6.57;6.10;;;17.90;90.20;;;;;;5009100;28;20433;-75
2023/05/05 03:00:54;;;;;;;6.60;6.10;;;17.90;90.70;;;;;;5010946;28;20426;-74
2023/05/05 03:03:53;;;;;;;6.90;6.40;;;17.80;90.40;;;;;;5011807;28;20400;-75
2023/05/05 03:06:21;;;;;;;7.07;6.47;;;17.80;90.40;;;;;;5012081;28;20395;-75
2023/05/05 03:09:05;;;;;;;7.60;7.00;;;17.70;90.80;;;;;;5011093;28;20405;-74
2023/05/05 03:11:45;;;;;;;6.97;6.37;;;17.70;90.40;;;;;;5011348;28;20414;-75
2023/05/05 03:14:17;;;;;;;7.20;6.50;;;17.70;90.80;;;;;;5011897;28;20422;-75
2023/05/05 03:16:45;;;;;;;7.20;6.70;;;17.70;90.70;;;;;;5011680;28;20414;-74
2023/05/05 03:19:13;;;;;;;7.20;6.67;;;17.70;91.30;;;;;;5011118;28;20440;-75
2023/05/05 03:21:39;;;;;;;7.47;6.97;;;17.70;91.90;;;;;;5011057;28;20493;-75
2023/05/05 03:24:16;;;;;;;7.73;7.23;;;17.60;92.50;;;;;;5002488;28;20505;-76
2023/05/05 03:26:42;;;;;;;7.40;6.80;;;17.60;92.50;;;;;;4991029;28;20542;-75
2023/05/05 03:29:09;;;;;;;6.87;6.33;;;17.60;92.50;;;;;;5005928;28;20420;-75
2023/05/05 03:31:35;;;;;;;7.37;6.87;;;17.50;92.60;;;;;;5014975;28;20414;-75
2023/05/05 03:34:01;;;;;;;8.00;7.40;;;17.50;93.20;;;;;;5014770;28;20182;-75
2023/05/05 03:36:27;;;;;;;7.67;7.10;;;17.50;93.90;;;;;;5014935;28;20207;-76
2023/05/05 03:38:53;;;;;;;11.93;10.80;;;17.50;93.50;;;;;;5014376;28;20402;-75
2023/05/05 03:41:20;;;;;;;8.60;7.80;;;17.50;93.40;;;;;;5014607;28;20417;-75
2023/05/05 03:43:46;;;;;;;7.80;7.20;;;17.50;93.40;;;;;;5014705;28;20167;-73
2023/05/05 03:46:12;;;;;;;12.23;11.30;;;17.60;94.30;;;;;;5015470;28;20727;-75
2023/05/05 03:48:37;;;;;;;11.20;10.40;;;17.60;95.00;;;;;;5013810;28;20655;-75
2023/05/05 03:51:03;;;;;;;8.70;7.90;;;17.60;94.90;;;;;;5013350;28;20234;-74
2023/05/05 03:53:29;;;;;;;13.03;12.03;;;17.70;95.30;;;;;;5014803;28;20183;-75
2023/05/05 03:55:55;;;;;;;13.43;12.43;;;17.70;95.50;;;;;;5011786;28;20290;-75
2023/05/05 03:58:20;;;;;;;10.30;9.33;;;17.70;95.60;;;;;;5011819;28;20182;-75
2023/05/05 04:00:46;;;;;;;10.00;9.07;;;17.70;96.10;;;;;;5013107;28;20183;-73
2023/05/05 04:03:12;;;;;;;11.03;10.23;;;17.70;96.70;;;;;;5014120;28;20175;-74
2023/05/05 04:05:38;;;;;;;15.77;14.27;;;17.80;97.00;;;;;;5011807;28;20191;-75
2023/05/05 04:08:04;;;;;;;16.03;14.63;;;17.80;97.10;;;;;;5008549;28;20210;-78
2023/05/05 04:10:29;;;;;;;13.43;12.23;;;17.80;97.90;;;;;;5012829;28;20179;-77
2023/05/05 04:12:55;;;;;;;10.10;9.30;;;17.80;98.00;;;;;;5012243;28;20422;-77
2023/05/05 04:15:21;;;;;;;9.50;8.80;;;17.80;98.60;;;;;;5011130;28;20221;-77
2023/05/05 04:17:47;;;;;;;11.70;10.73;;;17.80;99.00;;;;;;4997918;28;20180;-75
2023/05/05 04:20:12;;;;;;;9.40;8.70;;;17.80;99.20;;;;;;5008413;28;20183;-75
2023/05/05 04:22:39;;;;;;;8.50;7.83;;;17.80;99.90;;;;;;5010912;28;20179;-75
2023/05/05 04:25:05;;;;;;;10.00;9.10;;;17.90;99.90;;;;;;5012916;28;20417;-75
2023/05/05 04:27:31;;;;;;;10.60;9.57;;;18.00;99.90;;;;;;5012103;28;20792;-75
2023/05/05 04:29:57;;;;;;;10.50;9.70;;;18.10;99.90;;;;;;5000406;28;20441;-75
2023/05/05 04:32:22;;;;;;;10.60;9.70;;;18.30;99.90;;;;;;4993539;28;20490;-81
2023/05/05 04:34:48;;;;;;;10.73;9.77;;;18.40;99.90;;;;;;5006307;28;20219;-75
2023/05/05 04:37:14;;;;;;;22.13;20.13;;;18.50;99.90;;;;;;4999484;28;20646;-75
2023/05/05 04:39:40;;;;;;;23.30;20.87;;;18.50;99.50;;;;;;5002312;28;20655;-74
2023/05/05 04:42:06;;;;;;;17.73;13.07;;;18.60;98.70;;;;;;5011963;28;20431;-72
2023/05/05 04:44:35;;;;;;;13.57;12.20;;;18.60;97.70;;;;;;5013791;28;20497;-73
2023/05/05 04:47:01;;;;;;;12.60;11.30;;;18.60;97.60;;;;;;5013118;28;20407;-71
2023/05/05 04:49:30;;;;;;;11.27;10.27;;;18.60;98.10;;;;;;5012332;28;20807;-72
2023/05/05 04:51:57;;;;;;;12.87;11.77;;;18.50;98.60;;;;;;4993273;28;21053;-72
2023/05/05 04:54:22;;;;;;;11.97;10.97;;;18.50;98.50;;;;;;4993638;28;20926;-72
2023/05/05 04:56:49;;;;;;;12.03;10.83;;;18.50;98.40;;;;;;4993528;28;20465;-71
2023/05/05 04:59:15;;;;;;;14.73;13.63;;;18.50;98.60;;;;;;4994013;28;20172;-71
2023/05/05 05:01:41;;;;;;;12.00;11.00;;;18.50;98.70;;;;;;5012153;28;20430;-73
2023/05/05 05:04:07;;;;;;;14.17;12.87;;;18.50;98.70;;;;;;5012765;28;20476;-72
2023/05/05 05:06:33;;;;;;;11.20;10.00;;;18.50;99.30;;;;;;5007199;28;20415;-72
2023/05/05 05:08:59;;;;;;;11.50;10.50;;;18.50;99.90;;;;;;4993102;28;20419;-72
2023/05/05 05:11:27;;;;;;;15.57;14.00;;;18.50;99.90;;;;;;4993582;28;20642;-72
2023/05/05 05:13:53;;;;;;;37.40;30.20;;;18.50;99.90;;;;;;4992908;28;20399;-72
2023/05/05 05:16:20;;;;;;;19.20;17.17;;;18.50;99.90;;;;;;4993759;28;20199;-72
2023/05/05 05:18:46;;;;;;;15.47;13.93;;;18.50;99.90;;;;;;5011272;28;20197;-79
2023/05/05 05:21:12;;;;;;;13.70;12.60;;;18.50;99.90;;;;;;5013471;28;20414;-79
2023/05/05 05:23:38;;;;;;;15.83;14.43;;;18.50;99.90;;;;;;5013268;28;20394;-75
2023/05/05 05:26:05;;;;;;;13.40;12.00;;;18.50;99.90;;;;;;5012765;28;20175;-76
2023/05/05 05:28:31;;;;;;;16.00;14.60;;;18.50;99.90;;;;;;5013487;28;20183;-75
2023/05/05 05:30:57;;;;;;;15.60;14.30;;;18.50;99.90;;;;;;5011816;28;20941;-75
2023/05/05 05:33:22;;;;;;;13.30;12.00;;;18.50;99.90;;;;;;5013017;28;20527;-75
2023/05/05 05:35:48;;;;;;;15.97;14.50;;;18.60;99.90;;;;;;5011150;28;20466;-74
2023/05/05 05:38:14;;;;;;;15.23;13.60;;;18.60;99.90;;;;;;5011436;28;20271;-75
2023/05/05 05:40:39;;;;;;;16.30;14.80;;;18.60;99.90;;;;;;5012851;28;20198;-75
2023/05/05 05:43:05;;;;;;;14.27;12.87;;;18.60;99.90;;;;;;5008751;28;20658;-75
2023/05/05 05:45:31;;;;;;;14.00;12.67;;;18.60;99.90;;;;;;5009975;28;20195;-75
2023/05/05 05:47:57;;;;;;;15.83;14.13;;;18.60;99.90;;;;;;5007875;28;20179;-75
2023/05/05 05:50:26;;;;;;;13.87;12.40;;;18.60;99.90;;;;;;5010914;28;20223;-75
2023/05/05 05:52:51;;;;;;;14.30;12.80;;;18.60;99.90;;;;;;5011589;28;20394;-74
2023/05/05 05:55:17;;;;;;;16.50;13.30;;;18.70;99.90;;;;;;5012205;28;20468;-75
2023/05/05 05:57:43;;;;;;;14.30;12.90;;;18.70;99.90;;;;;;5012760;28;20194;-75
2023/05/05 06:00:09;;;;;;;15.47;13.90;;;18.70;99.90;;;;;;5011958;28;20171;-75
2023/05/05 06:02:35;;;;;;;15.00;13.53;;;18.70;99.90;;;;;;5012813;28;20265;-75
2023/05/05 06:05:01;;;;;;;16.47;14.97;;;18.70;99.90;;;;;;5011706;28;20957;-76
2023/05/05 06:07:26;;;;;;;16.07;14.57;;;18.70;99.90;;;;;;5012703;28;20653;-75
2023/05/05 06:09:52;;;;;;;17.90;16.20;;;18.70;99.90;;;;;;5011867;28;20178;-75
2023/05/05 06:12:18;;;;;;;17.67;16.17;;;18.70;99.90;;;;;;5012486;28;20185;-75
2023/05/05 06:14:43;;;;;;;16.00;14.40;;;18.70;99.90;;;;;;5012550;28;20206;-75
2023/05/05 06:17:09;;;;;;;17.93;16.20;;;18.80;99.90;;;;;;5010978;28;20646;-75
2023/05/05 06:19:38;;;;;;;19.20;17.20;;;18.80;99.90;;;;;;4992777;28;20541;-76
2023/05/05 06:22:04;;;;;;;19.67;17.77;;;18.90;99.90;;;;;;4992102;28;20172;-75
2023/05/05 06:24:30;;;;;;;20.73;18.53;;;18.80;99.90;;;;;;4992727;28;20432;-76
2023/05/05 06:26:58;;;;;;;20.63;16.70;;;18.90;99.90;;;;;;4991894;28;20419;-75
2023/05/05 06:29:25;;;;;;;20.30;18.03;;;18.90;99.90;;;;;;4992635;28;20465;-75
2023/05/05 06:31:50;;;;;;;18.90;15.47;;;18.90;99.90;;;;;;4992674;28;20427;-77
2023/05/05 06:34:17;;;;;;;18.27;16.57;;;18.90;99.90;;;;;;4991991;28;20489;-76
2023/05/05 06:36:43;;;;;;;19.30;17.60;;;18.90;99.90;;;;;;4992364;28;20212;-75
2023/05/05 06:39:09;;;;;;;17.07;15.50;;;18.90;99.90;;;;;;4992140;28;20816;-74
2023/05/05 06:41:35;;;;;;;20.57;17.80;;;19.00;99.90;;;;;;4996767;28;20425;-74
2023/05/05 06:44:01;;;;;;;19.20;17.60;;;19.00;99.90;;;;;;5011247;28;20191;-74
2023/05/05 06:46:26;;;;;;;17.20;15.50;;;19.10;99.90;;;;;;5010536;28;20183;-74
2023/05/05 06:48:52;;;;;;;29.53;26.63;;;19.10;99.90;;;;;;5011080;28;20183;-74
2023/05/05 06:51:18;;;;;;;20.80;16.27;;;19.10;99.90;;;;;;5012204;28;20219;-75
2023/05/05 06:53:44;;;;;;;16.97;15.17;;;19.10;99.90;;;;;;5012482;28;20171;-74
2023/05/05 06:56:10;;;;;;;17.07;15.33;;;19.20;99.90;;;;;;5011508;28;21019;-75
2023/05/05 06:58:36;;;;;;;17.73;15.83;;;19.20;99.90;;;;;;5011531;28;20449;-74
2023/05/05 07:01:02;;;;;;;14.73;13.17;;;19.30;99.90;;;;;;5011470;28;20856;-74
2023/05/05 07:03:28;;;;;;;15.00;13.70;;;19.40;99.90;;;;;;5012339;28;20493;-74
2023/05/05 07:05:54;;;;;;;14.57;13.37;;;19.40;99.90;;;;;;5015429;28;20892;-74
2023/05/05 07:08:20;;;;;;;13.50;12.30;;;19.40;99.90;;;;;;5016314;28;20541;-74
2023/05/05 07:10:46;;;;;;;11.83;10.63;;;19.50;99.90;;;;;;5015776;28;20520;-74
2023/05/05 07:13:14;;;;;;;12.00;10.90;;;19.60;99.90;;;;;;5015438;28;20635;-74
2023/05/05 07:15:45;;;;;;;12.87;11.77;;;19.60;99.90;;;;;;5014852;28;20544;-74
2023/05/05 07:18:15;;;;;;;13.43;11.37;;;19.60;99.90;;;;;;5015451;28;20394;-74
2023/05/05 07:20:41;;;;;;;11.93;10.90;;;19.70;99.90;;;;;;5015925;28;20410;-74
2023/05/05 07:23:07;;;;;;;14.70;13.50;;;19.70;99.90;;;;;;5015210;28;20434;-74
2023/05/05 07:25:33;;;;;;;12.80;11.40;;;19.80;99.50;;;;;;5016016;28;20458;-74
2023/05/05 07:27:59;;;;;;;14.67;13.27;;;19.80;99.10;;;;;;5015430;28;20182;-74
2023/05/05 07:30:25;;;;;;;14.13;12.87;;;19.90;99.20;;;;;;5015788;28;20612;-74
2023/05/05 07:32:51;;;;;;;13.27;12.00;;;20.10;99.90;;;;;;5015468;28;20418;-74
2023/05/05 07:35:17;;;;;;;13.73;12.40;;;20.10;99.90;;;;;;5015643;28;20701;-74
2023/05/05 07:37:45;;;;;;;11.30;9.97;;;20.10;98.40;;;;;;5015723;28;20438;-74
2023/05/05 07:40:12;;;;;;;12.30;11.30;;;20.20;98.30;;;;;;5015367;28;20541;-74
2023/05/05 07:42:37;;;;;;;12.83;11.10;;;20.30;98.40;;;;;;5015402;28;20769;-74
2023/05/05 07:45:05;;;;;;;10.70;9.60;;;20.40;98.40;;;;;;5013777;28;20434;-74
2023/05/05 07:47:31;;;;;;;11.37;10.37;;;20.40;97.20;;;;;;5015472;28;20450;-75
2023/05/05 07:49:57;;;;;;;10.20;9.30;;;20.50;96.20;;;;;;5013170;28;20462;-74
2023/05/05 07:52:24;;;;;;;9.70;8.80;;;20.50;96.40;;;;;;5015592;28;20521;-75
2023/05/05 07:54:49;;;;;;;9.50;8.60;;;20.60;95.90;;;;;;5015226;28;20538;-75
2023/05/05 07:57:15;;;;;;;9.93;9.10;;;20.60;96.50;;;;;;5013567;28;20480;-75
2023/05/05 07:59:44;;;;;;;10.20;9.40;;;20.60;96.50;;;;;;5015221;28;20527;-75
2023/05/05 08:02:11;;;;;;;10.60;9.80;;;20.60;96.90;;;;;;5014585;28;20414;-75
2023/05/05 08:04:41;;;;;;;10.87;9.97;;;20.70;97.60;;;;;;5015135;28;20501;-75
2023/05/05 08:07:07;;;;;;;8.70;8.00;;;20.80;97.40;;;;;;5014084;28;20406;-75
2023/05/05 08:09:34;;;;;;;16.53;12.20;;;20.80;96.70;;;;;;5014597;28;20410;-74
2023/05/05 08:12:01;;;;;;;16.20;10.50;;;20.80;97.40;;;;;;5013803;28;20410;-74
2023/05/05 08:14:27;;;;;;;12.20;10.00;;;20.90;97.10;;;;;;5013738;28;20481;-74
2023/05/05 08:16:53;;;;;;;11.27;10.33;;;20.90;97.10;;;;;;5013968;28;20477;-74
2023/05/05 08:19:19;;;;;;;11.50;10.50;;;21.00;96.30;;;;;;5013688;28;20816;-74
2023/05/05 08:21:45;;;;;;;11.00;10.00;;;21.00;96.50;;;;;;5014834;28;20175;-74
2023/05/05 08:24:13;;;;;;;11.60;10.50;;;21.10;96.80;;;;;;5013612;28;20425;-74
2023/05/05 08:26:39;;;;;;;11.27;10.40;;;21.10;96.20;;;;;;5013542;28;20531;-75
2023/05/05 08:29:05;;;;;;;11.60;10.60;;;21.20;95.70;;;;;;5013937;28;20402;-75
2023/05/05 08:31:38;;;;;;;15.90;14.53;;;21.20;95.50;;;;;;5014961;28;20167;-74
2023/05/05 08:34:04;;;;;;;13.90;12.60;;;21.30;95.80;;;;;;5014184;28;20182;-75
2023/05/05 08:36:31;;;;;;;11.60;10.60;;;21.30;95.80;;;;;;5014650;28;20456;-75
2023/05/05 08:38:58;;;;;;;13.07;11.97;;;21.50;96.00;;;;;;5013915;28;20481;-75
2023/05/05 08:41:25;;;;;;;12.13;11.03;;;21.40;95.10;;;;;;5014248;28;20398;-78
2023/05/05 08:43:51;;;;;;;12.00;11.00;;;21.50;95.00;;;;;;5013812;28;20421;-75
2023/05/05 08:46:16;;;;;;;13.60;12.50;;;21.50;95.00;;;;;;5011897;28;20926;-75
2023/05/05 08:48:43;;;;;;;14.57;13.27;;;21.60;94.90;;;;;;5011884;28;20477;-75
2023/05/05 08:51:20;;;;;;;11.53;10.50;;;21.70;95.70;;;;;;5013248;28;20587;-75
2023/05/05 08:53:51;;;;;;;12.80;11.70;;;21.70;95.20;;;;;;5014286;28;20771;-75
2023/05/05 08:56:21;;;;;;;14.60;13.20;;;21.80;94.30;;;;;;5009715;28;20887;-76
2023/05/05 08:58:48;;;;;;;11.57;10.60;;;21.90;94.60;;;;;;5011712;28;20438;-76
2023/05/05 09:01:14;;;;;;;11.27;10.37;;;22.00;94.80;;;;;;5013948;28;20488;-79
2023/05/05 09:03:40;;;;;;;12.77;11.67;;;22.10;94.40;;;;;;5013216;28;20501;-79
2023/05/05 09:06:09;;;;;;;12.73;11.63;;;22.10;94.20;;;;;;4998334;28;20410;-75
2023/05/05 09:08:36;;;;;;;12.43;11.23;;;22.20;94.30;;;;;;5006294;28;20506;-77
2023/05/05 09:11:02;;;;;;;12.50;11.30;;;22.30;94.30;;;;;;5004515;28;20429;-75
2023/05/05 09:13:29;;;;;;;12.10;11.00;;;22.40;93.60;;;;;;5003970;28;20502;-76
2023/05/05 09:15:55;;;;;;;13.73;12.73;;;22.50;93.40;;;;;;5000101;28;20480;-77
2023/05/05 09:18:21;;;;;;;12.20;11.20;;;22.60;93.30;;;;;;5012694;28;20414;-77
2023/05/05 09:20:47;;;;;;;12.73;11.43;;;22.60;93.10;;;;;;5009732;28;20444;-77
2023/05/05 09:23:18;;;;;;;11.77;10.67;;;22.80;93.40;;;;;;5013197;28;20233;-77
2023/05/05 09:25:45;;;;;;;12.40;11.40;;;22.90;93.10;;;;;;5007057;28;20201;-77
2023/05/05 09:28:13;;;;;;;12.53;11.43;;;23.00;93.30;;;;;;5011685;28;20456;-77
2023/05/05 09:30:41;;;;;;;11.30;10.30;;;23.00;92.80;;;;;;5004057;28;20461;-77
2023/05/05 09:33:10;;;;;;;11.73;10.70;;;23.10;92.00;;;;;;4999234;28;20510;-78
2023/05/05 09:35:53;;;;;;;9.87;9.07;;;23.20;92.40;;;;;;4993827;28;20469;-78
2023/05/05 09:38:21;;;;;;;10.63;9.83;;;23.30;93.50;;;;;;5003973;28;20987;-77
2023/05/05 09:40:48;;;;;;;10.07;9.23;;;23.50;91.90;;;;;;5007598;28;20422;-78
2023/05/05 09:43:16;;;;;;;9.13;8.40;;;23.60;90.90;;;;;;5008144;28;20994;-77
2023/05/05 09:45:42;;;;;;;9.33;8.63;;;23.70;91.00;;;;;;5006502;28;20427;-77
2023/05/05 09:48:30;;;;;;;8.57;7.87;;;23.80;90.60;;;;;;4999419;28;20458;-78
2023/05/05 09:50:58;;;;;;;9.60;8.70;;;23.90;90.50;;;;;;5001830;28;20505;-77
2023/05/05 09:53:25;;;;;;;8.87;7.83;;;24.00;90.40;;;;;;4999452;28;20426;-77
2023/05/05 09:55:59;;;;;;;9.93;9.03;;;24.00;90.20;;;;;;5012649;28;20462;-74
2023/05/05 09:58:29;;;;;;;8.23;7.27;;;24.10;90.80;;;;;;5012818;28;20401;-73
2023/05/05 10:00:56;;;;;;;9.00;8.40;;;24.20;90.30;;;;;;5013061;28;20414;-77
2023/05/05 10:03:23;;;;;;;7.90;7.30;;;24.30;90.50;;;;;;5009742;28;20434;-78
2023/05/05 10:05:57;;;;;;;9.47;8.67;;;24.40;88.90;;;;;;5004376;28;20860;-78
2023/05/05 10:08:25;;;;;;;7.50;7.00;;;24.50;87.10;;;;;;5004567;28;20433;-77
2023/05/05 10:10:58;;;;;;;9.00;8.10;;;24.50;87.10;;;;;;5008769;28;20426;-78
2023/05/05 10:13:24;;;;;;;7.70;7.20;;;24.60;86.10;;;;;;5003977;28;20437;-77
2023/05/05 10:15:51;;;;;;;6.07;5.43;;;24.70;85.90;;;;;;5010455;28;20473;-78
2023/05/05 10:18:26;;;;;;;6.03;5.63;;;24.60;84.00;;;;;;4991228;28;20423;-78
2023/05/05 10:21:00;;;;;;;5.97;5.47;;;24.70;84.70;;;;;;4992728;28;20415;-78
2023/05/05 10:23:37;;;;;;;6.83;6.40;;;24.70;83.30;;;;;;4996802;28;20476;-78
2023/05/05 10:26:06;;;;;;;6.10;5.60;;;24.70;83.60;;;;;;4991656;28;20927;-77
2023/05/05 10:28:36;;;;;;;6.40;5.93;;;24.50;84.60;;;;;;4992242;28;20556;-78
2023/05/05 10:31:04;;;;;;;6.30;5.90;;;24.50;84.90;;;;;;4991892;28;20427;-78
2023/05/05 10:33:48;;;;;;;7.80;7.30;;;24.40;84.50;;;;;;4996080;28;20490;-78
2023/05/05 10:36:15;;;;;;;8.03;7.53;;;24.40;84.90;;;;;;5006779;28;20465;-77
2023/05/05 10:38:41;;;;;;;6.50;5.90;;;24.20;85.10;;;;;;5012422;28;20402;-79
2023/05/05 10:41:10;;;;;;;6.87;6.37;;;24.10;85.00;;;;;;5013786;28;20483;-78
2023/05/05 10:43:36;;;;;;;8.27;7.77;;;24.10;86.90;;;;;;5011150;28;20788;-77
2023/05/05 10:46:02;;;;;;;5.77;5.37;;;24.10;90.20;;;;;;5014526;28;20487;-77
2023/05/05 10:48:39;;;;;;;7.00;6.60;;;24.30;89.10;;;;;;5014676;28;20980;-77
2023/05/05 10:51:18;;;;;;;6.77;6.20;;;24.30;85.50;;;;;;5013749;28;20557;-76
2023/05/05 10:53:55;;;;;;;5.97;5.47;;;24.40;84.30;;;;;;5016095;28;20937;-76
2023/05/05 10:56:32;;;;;;;6.90;6.50;;;24.50;83.90;;;;;;5014316;28;20561;-77
2023/05/05 10:58:58;;;;;;;5.03;4.70;;;24.70;86.20;;;;;;5013151;28;20464;-76
2023/05/05 11:01:32;;;;;;;6.95;6.45;;;24.80;85.00;;;;;;5006901;28;20436;-77
2023/05/05 11:04:24;;;;;;;6.90;6.50;;;24.90;82.20;;;;;;5015802;28;20635;-75
2023/05/05 11:07:08;;;;;;;5.85;5.35;;;24.90;81.50;;;;;;4993309;28;20441;-77
2023/05/05 11:09:41;;;;;;;5.50;5.10;;;24.80;81.60;;;;;;4996412;28;20223;-75
2023/05/05 11:12:07;;;;;;;5.67;5.37;;;24.70;79.50;;;;;;5019437;28;20752;-78
2023/05/05 11:14:34;;;;;;;5.10;4.80;;;24.50;82.80;;;;;;5015953;28;20468;-76
2023/05/05 11:17:00;;;;;;;4.93;4.43;;;24.50;83.90;;;;;;5015052;28;20476;-76
2023/05/05 11:19:46;;;;;;;5.70;5.20;;;24.30;83.50;;;;;;5014016;28;20456;-77
2023/05/05 11:22:15;;;;;;;5.73;5.43;;;24.20;84.80;;;;;;5014439;28;20869;-83
2023/05/05 11:24:41;;;;;;;5.50;5.00;;;24.10;84.50;;;;;;5011533;28;20794;-77
2023/05/05 11:27:07;;;;;;;5.33;4.83;;;24.10;85.50;;;;;;5014029;28;20431;-77
2023/05/05 11:30:08;;;;;;;5.40;5.00;;;24.10;87.20;;;;;;5014247;28;20226;-77
2023/05/05 11:32:35;;;;;;;4.70;4.50;;;24.00;84.70;;;;;;5011777;28;20558;-78
2023/05/05 11:35:01;;;;;;;5.40;4.93;;;23.90;87.70;;;;;;5014828;28;20461;-77
2023/05/05 11:37:27;;;;;;;4.90;4.60;;;23.90;86.70;;;;;;5015895;28;20228;-78
2023/05/05 11:40:01;;;;;;;5.43;4.93;;;23.90;85.30;;;;;;5015444;28;20902;-78
2023/05/05 11:42:27;;;;;;;5.10;4.80;;;23.80;84.30;;;;;;5003389;28;20949;-78
2023/05/05 11:44:53;;;;;;;5.30;4.80;;;23.70;84.50;;;;;;4996589;28;20421;-81
2023/05/05 11:47:19;;;;;;;4.27;3.97;;;23.60;85.30;;;;;;5013705;28;20428;-79
2023/05/05 11:49:45;;;;;;;6.03;5.27;;;23.60;86.50;;;;;;5015630;28;20422;-81
2023/05/05 11:52:13;;;;;;;6.80;6.50;;;23.60;88.80;;;;;;5015610;28;20163;-76
2023/05/05 11:54:47;;;;;;;4.60;4.30;;;23.50;88.30;;;;;;5014692;28;20198;-77
2023/05/05 11:57:14;;;;;;;8.23;7.83;;;23.50;86.90;;;;;;5012359;28;20426;-75
2023/05/05 12:00:00;;;;;;;5.80;5.40;;;23.40;88.10;;;;;;5014751;28;20493;-75
2023/05/05 12:02:28;;;;;;;8.37;7.87;;;23.30;86.90;;;;;;5014209;28;20417;-75
2023/05/05 12:04:54;;;;;;;7.20;6.80;;;23.30;89.20;;;;;;5015161;28;20421;-75
2023/05/05 12:07:25;;;;;;;5.27;4.90;;;23.20;88.30;;;;;;5013869;28;20440;-75
2023/05/05 12:09:52;;;;;;;4.67;4.33;;;23.00;87.90;;;;;;5015153;28;20414;-75
2023/05/05 12:12:18;;;;;;;4.63;4.27;;;23.00;87.40;;;;;;5014429;28;20737;-76
2023/05/05 12:14:51;;;;;;;5.10;4.80;;;22.90;86.00;;;;;;5014586;28;20410;-78
2023/05/05 12:17:21;;;;;;;5.07;4.60;;;22.80;87.10;;;;;;5014410;28;20771;-75
2023/05/05 12:19:48;;;;;;;5.27;4.97;;;22.70;87.80;;;;;;5014427;28;20386;-75
2023/05/05 12:22:19;;;;;;;5.00;4.70;;;22.70;88.80;;;;;;5013763;28;20414;-75
2023/05/05 12:24:51;;;;;;;7.17;6.77;;;22.50;90.10;;;;;;5014936;28;20403;-76
2023/05/05 12:27:17;;;;;;;4.93;4.53;;;22.50;90.10;;;;;;5014367;28;20434;-76
2023/05/05 12:29:43;;;;;;;5.67;5.23;;;22.40;90.20;;;;;;5014754;28;20434;-76
2023/05/05 12:32:24;;;;;;;6.17;5.70;;;22.30;90.00;;;;;;5014208;28;20199;-77
2023/05/05 12:34:56;;;;;;;4.73;4.43;;;22.20;91.00;;;;;;5014425;28;20718;-75
2023/05/05 12:37:22;;;;;;;7.47;7.00;;;22.10;91.80;;;;;;5010144;28;20423;-74
2023/05/05 12:39:53;;;;;;;5.80;5.40;;;21.90;92.40;;;;;;5013658;28;20437;-75
2023/05/05 12:42:20;;;;;;;7.60;7.10;;;21.80;92.10;;;;;;5013960;28;20409;-75
2023/05/05 12:44:47;;;;;;;6.90;6.50;;;21.70;93.60;;;;;;5014569;28;20460;-76